createdAt,value
2023-04-24T00:00:41.816Z,0.50
2023-04-24T00:03:44.704Z,0.60
2023-04-24T00:06:50.626Z,0.40
2023-04-24T00:09:53.254Z,0.40
2023-04-24T00:12:55.844Z,0.63
2023-04-24T00:15:58.609Z,0.77
2023-04-24T00:19:01.808Z,0.47
2023-04-24T00:22:06.241Z,0.90
2023-04-24T00:25:09.541Z,0.60
2023-04-24T00:28:12.012Z,0.60
2023-04-24T00:31:14.566Z,0.50
2023-04-24T00:34:17.111Z,0.50
2023-04-24T00:37:21.516Z,0.40
2023-04-24T00:40:24.342Z,0.90
2023-04-24T00:43:26.943Z,0.60
2023-04-24T00:46:29.644Z,0.40
2023-04-24T00:49:32.373Z,0.85
2023-04-24T00:52:36.926Z,0.60
2023-04-24T00:55:39.646Z,0.50
2023-04-24T00:58:42.675Z,0.40
2023-04-24T01:01:45.904Z,1.15
2023-04-24T01:04:48.513Z,0.47
2023-04-24T01:07:52.473Z,0.50
2023-04-24T01:10:55.138Z,0.97
2023-04-24T01:13:59.832Z,0.45
2023-04-24T01:17:02.407Z,0.57
2023-04-24T01:20:06.982Z,0.43
2023-04-24T01:23:11.378Z,0.40
2023-04-24T01:26:15.355Z,0.50
2023-04-24T01:29:18.232Z,0.40
2023-04-24T01:32:21.019Z,0.47
2023-04-24T01:35:23.794Z,0.60
2023-04-24T01:38:27.736Z,0.50
2023-04-24T01:41:30.471Z,0.50
2023-04-24T01:44:33.148Z,0.60
2023-04-24T01:47:35.829Z,0.40
2023-04-24T01:50:38.390Z,0.50
2023-04-24T01:53:42.278Z,0.70
2023-04-24T01:56:45.430Z,0.33
2023-04-24T01:59:47.991Z,0.70
2023-04-24T02:02:50.966Z,0.40
2023-04-24T02:05:53.689Z,0.60
2023-04-24T02:08:57.616Z,0.80
2023-04-24T02:12:00.190Z,0.43
2023-04-24T02:15:02.726Z,0.50
2023-04-24T02:18:05.385Z,0.60
2023-04-24T02:21:08.016Z,0.50
2023-04-24T02:24:11.851Z,0.60
2023-04-24T02:27:14.547Z,0.40
2023-04-24T02:30:17.075Z,0.47
2023-04-24T02:33:19.660Z,0.50
2023-04-24T02:36:22.244Z,0.40
2023-04-24T02:39:26.166Z,0.63
2023-04-24T02:42:28.758Z,0.60
2023-04-24T02:45:31.352Z,0.57
2023-04-24T02:48:34.004Z,0.53
2023-04-24T02:51:39.114Z,0.55
2023-04-24T02:54:42.963Z,0.70
2023-04-24T02:57:45.501Z,0.50
2023-04-24T03:00:48.270Z,0.60
2023-04-24T03:03:51.078Z,0.50
2023-04-24T03:06:55.702Z,0.60
2023-04-24T03:10:00.357Z,0.50
2023-04-24T03:13:02.915Z,0.50
2023-04-24T03:16:05.839Z,0.43
2023-04-24T03:19:08.378Z,0.40
2023-04-24T03:22:10.993Z,0.60
2023-04-24T03:25:15.070Z,0.83
2023-04-24T03:28:17.587Z,0.67
2023-04-24T03:31:20.199Z,0.50
2023-04-24T03:34:22.762Z,0.70
2023-04-24T03:37:25.558Z,0.33
2023-04-24T03:40:30.622Z,0.40
2023-04-24T03:43:36.211Z,0.60
2023-04-24T03:46:39.063Z,0.57
2023-04-24T03:49:46.084Z,0.98
2023-04-24T03:52:48.734Z,0.53
2023-04-24T03:55:55.966Z,0.60
2023-04-24T03:58:58.518Z,0.70
2023-04-24T04:02:01.732Z,0.60
2023-04-24T04:05:04.864Z,0.45
2023-04-24T04:08:07.946Z,0.50
2023-04-24T04:11:11.966Z,0.43
2023-04-24T04:14:14.918Z,0.57
2023-04-24T04:17:18.615Z,0.65
2023-04-24T04:23:25.915Z,0.50
2023-04-24T04:26:38.748Z,0.50
2023-04-24T04:29:42.205Z,0.40
2023-04-24T04:35:49.594Z,0.50
2023-04-24T04:38:52.134Z,0.60
2023-04-24T04:41:56.177Z,0.60
2023-04-24T04:44:59.125Z,0.93
2023-04-24T04:48:03.200Z,0.68
2023-04-24T04:51:06.444Z,0.70
2023-04-24T04:54:09.129Z,0.55
2023-04-24T04:57:13.654Z,0.57
2023-04-24T05:00:17.078Z,1.07
2023-04-24T05:03:21.632Z,0.73
2023-04-24T05:06:24.747Z,0.80
2023-04-24T05:09:28.307Z,0.60
2023-04-24T05:12:32.325Z,0.70
2023-04-24T05:15:35.931Z,0.80
2023-04-24T05:21:41.512Z,0.87
2023-04-24T05:24:44.135Z,0.88
2023-04-24T05:27:48.160Z,0.80
2023-04-24T05:30:51.251Z,0.50
2023-04-24T05:33:53.893Z,1.25
2023-04-24T05:36:56.513Z,0.80
2023-04-24T05:39:59.506Z,0.83
2023-04-24T05:43:03.782Z,0.90
2023-04-24T05:46:06.853Z,0.70
2023-04-24T05:49:09.506Z,0.90
2023-04-24T05:52:12.193Z,0.80
2023-04-24T05:55:14.817Z,1.00
2023-04-24T05:58:19.018Z,0.83
2023-04-24T06:01:21.779Z,0.93
2023-04-24T06:04:25.766Z,0.90
2023-04-24T06:07:28.781Z,0.87
2023-04-24T06:10:31.520Z,0.70
2023-04-24T06:13:35.520Z,1.27
2023-04-24T06:16:39.944Z,0.80
2023-04-24T06:19:42.813Z,1.20
2023-04-24T06:22:45.674Z,0.98
2023-04-24T06:25:48.322Z,0.80
2023-04-24T06:28:52.382Z,0.90
2023-04-24T06:31:54.967Z,1.20
2023-04-24T06:34:59.085Z,0.93
2023-04-24T06:38:02.183Z,1.00
2023-04-24T06:41:06.204Z,1.07
2023-04-24T06:44:10.334Z,1.17
2023-04-24T06:47:14.492Z,1.20
2023-04-24T06:50:17.196Z,1.40
2023-04-24T06:53:19.831Z,1.00
2023-04-24T06:56:22.657Z,1.02
2023-04-24T06:59:26.760Z,0.98
2023-04-24T07:02:29.701Z,1.00
2023-04-24T07:05:35.138Z,0.88
2023-04-24T07:08:37.900Z,0.90
2023-04-24T07:11:41.711Z,1.27
2023-04-24T07:14:45.741Z,1.30
2023-04-24T07:17:48.721Z,1.13
2023-04-24T07:20:52.110Z,1.70
2023-04-24T07:23:54.941Z,1.10
2023-04-24T07:26:57.996Z,1.20
2023-04-24T07:30:02.189Z,1.50
2023-04-24T07:33:05.055Z,0.73
2023-04-24T07:36:08.015Z,0.70
2023-04-24T07:39:10.887Z,1.05
2023-04-24T07:42:13.700Z,0.98
2023-04-24T07:45:17.945Z,0.85
2023-04-24T07:48:22.557Z,0.77
2023-04-24T07:51:25.229Z,0.50
2023-04-24T07:54:27.855Z,0.90
2023-04-24T07:57:30.514Z,1.00
2023-04-24T08:00:35.118Z,0.67
2023-04-24T08:03:38.045Z,0.90
2023-04-24T08:06:40.853Z,0.80
2023-04-24T08:09:43.607Z,0.70
2023-04-24T08:12:46.466Z,1.10
2023-04-24T08:15:50.700Z,1.08
2023-04-24T08:18:53.733Z,0.60
2023-04-24T08:21:56.674Z,0.70
2023-04-24T08:25:01.845Z,1.00
2023-04-24T08:28:05.307Z,0.97
2023-04-24T08:31:09.359Z,0.90
2023-04-24T08:34:12.426Z,0.80
2023-04-24T08:37:15.686Z,0.65
2023-04-24T08:40:19.096Z,0.93
2023-04-24T08:43:23.866Z,0.98
2023-04-24T08:46:28.196Z,1.00
2023-04-24T08:49:31.359Z,0.70
2023-04-24T08:52:34.819Z,0.80
2023-04-24T08:55:37.739Z,0.93
2023-04-24T08:58:41.179Z,0.90
2023-04-24T09:01:46.151Z,0.70
2023-04-24T09:04:49.550Z,0.87
2023-04-24T09:07:58.227Z,0.88
2023-04-24T09:11:03.666Z,0.83
2023-04-24T09:14:06.584Z,0.90
2023-04-24T09:17:10.727Z,0.73
2023-04-24T09:20:13.458Z,0.90
2023-04-24T09:23:19.808Z,1.10
2023-04-24T09:26:26.234Z,0.90
2023-04-24T09:29:29.398Z,0.73
2023-04-24T09:32:33.683Z,1.13
2023-04-24T09:35:36.389Z,0.70
2023-04-24T09:38:40.138Z,0.90
2023-04-24T09:41:46.651Z,1.10
2023-04-24T09:44:56.981Z,1.03
2023-04-24T09:48:11.341Z,1.10
2023-04-24T09:51:16.209Z,0.90
2023-04-24T09:54:22.103Z,0.97
2023-04-24T09:57:25.516Z,0.90
2023-04-24T10:00:29.692Z,0.80
2023-04-24T10:03:34.267Z,0.90
2023-04-24T10:06:37.693Z,1.00
2023-04-24T10:09:40.455Z,0.60
2023-04-24T10:12:43.364Z,0.77
2023-04-24T10:15:46.258Z,0.60
2023-04-24T10:18:50.741Z,0.80
2023-04-24T10:21:53.534Z,0.90
2023-04-24T10:24:56.168Z,0.80
2023-04-24T10:28:00.820Z,0.70
2023-04-24T10:31:03.753Z,0.73
2023-04-24T10:34:08.432Z,0.70
2023-04-24T10:37:11.119Z,0.60
2023-04-24T10:40:19.192Z,1.27
2023-04-24T10:43:21.917Z,0.77
2023-04-24T10:46:24.578Z,1.05
2023-04-24T10:49:32.047Z,0.50
2023-04-24T10:52:46.200Z,0.90
2023-04-24T10:55:51.248Z,0.67
2023-04-24T10:58:55.480Z,1.00
2023-04-24T11:01:58.102Z,0.70
2023-04-24T11:05:05.254Z,0.65
2023-04-24T11:08:15.653Z,1.10
2023-04-24T11:11:21.879Z,0.97
2023-04-24T11:14:24.549Z,0.80
2023-04-24T11:17:34.588Z,1.50
2023-04-24T11:20:38.851Z,0.80
2023-04-24T11:23:41.880Z,0.80
2023-04-24T11:26:44.580Z,0.82
2023-04-24T11:29:49.534Z,0.90
2023-04-24T11:32:53.536Z,0.60
2023-04-24T11:35:57.600Z,0.80
2023-04-24T11:39:00.487Z,0.67
2023-04-24T11:42:04.955Z,0.77
2023-04-24T11:45:11.631Z,1.40
2023-04-24T11:48:14.234Z,1.00
2023-04-24T11:51:18.548Z,2.00
2023-04-24T11:54:21.334Z,0.77
2023-04-24T11:57:27.516Z,1.00
2023-04-24T12:00:31.514Z,0.80
2023-04-24T12:03:34.425Z,0.80
2023-04-24T12:06:38.539Z,0.52
2023-04-24T12:09:47.622Z,0.83
2023-04-24T12:12:52.321Z,0.70
2023-04-24T12:15:55.064Z,0.80
2023-04-24T12:19:01.291Z,1.33
2023-04-24T12:22:07.454Z,0.80
2023-04-24T12:25:12.625Z,0.70
2023-04-24T12:28:15.583Z,0.70
2023-04-24T12:31:18.992Z,0.45
2023-04-24T12:34:22.309Z,0.68
2023-04-24T12:37:27.611Z,0.65
2023-04-24T12:40:32.578Z,0.80
2023-04-24T12:43:53.452Z,1.00
2023-04-24T12:46:56.222Z,0.70
2023-04-24T12:49:59.289Z,0.63
2023-04-24T12:53:02.224Z,1.00
2023-04-24T12:56:05.289Z,0.70
2023-04-24T12:59:09.314Z,0.70
2023-04-24T13:02:12.238Z,0.90
2023-04-24T13:05:15.037Z,1.00
2023-04-24T13:08:17.715Z,0.85
2023-04-24T13:11:20.334Z,0.75
2023-04-24T13:14:24.279Z,0.63
2023-04-24T13:17:26.904Z,1.00
2023-04-24T13:20:29.665Z,0.85
2023-04-24T13:23:32.345Z,1.05
2023-04-24T13:26:34.936Z,0.80
2023-04-24T13:29:39.429Z,1.00
2023-04-24T13:32:42.364Z,0.70
2023-04-24T13:35:45.147Z,0.80
2023-04-24T13:38:47.736Z,1.00
2023-04-24T13:41:50.510Z,0.80
2023-04-24T13:44:55.078Z,0.95
2023-04-24T13:47:58.009Z,0.90
2023-04-24T13:51:00.720Z,0.90
2023-04-24T13:54:03.343Z,0.70
2023-04-24T13:57:06.118Z,1.10
2023-04-24T14:00:11.784Z,1.17
2023-04-24T14:03:14.686Z,1.47
2023-04-24T14:06:17.624Z,1.48
2023-04-24T14:09:20.801Z,0.95
2023-04-24T14:12:23.639Z,1.05
2023-04-24T14:15:27.669Z,0.70
2023-04-24T14:18:30.327Z,0.70
2023-04-24T14:21:33.168Z,0.90
2023-04-24T14:24:35.976Z,0.77
2023-04-24T14:27:38.769Z,0.80
2023-04-24T14:30:42.910Z,0.70
2023-04-24T14:33:45.732Z,0.70
2023-04-24T14:36:48.539Z,0.77
2023-04-24T14:40:05.592Z,0.40
2023-04-24T14:43:13.936Z,0.57
2023-04-24T14:46:18.393Z,0.32
2023-04-24T14:49:21.133Z,0.40
2023-04-24T14:52:23.999Z,0.75
2023-04-24T14:55:27.135Z,0.80
2023-04-24T14:58:29.946Z,0.90
2023-04-24T15:01:33.997Z,0.82
2023-04-24T15:04:38.257Z,0.97
2023-04-24T15:07:42.473Z,0.90
2023-04-24T15:10:45.664Z,1.10
2023-04-24T15:13:48.504Z,0.85
2023-04-24T15:16:52.826Z,1.15
2023-04-24T15:19:55.610Z,1.10
2023-04-24T15:23:00.329Z,1.40
2023-04-24T15:26:03.345Z,1.17
2023-04-24T15:29:06.120Z,1.13
2023-04-24T15:32:10.572Z,1.00
2023-04-24T15:35:13.418Z,1.20
2023-04-24T15:38:16.368Z,1.20
2023-04-24T15:41:19.078Z,1.02
2023-04-24T15:44:22.413Z,1.30
2023-04-24T15:47:27.096Z,1.88
2023-04-24T15:50:29.766Z,1.37
2023-04-24T15:53:32.636Z,1.10
2023-04-24T15:56:37.047Z,1.35
2023-04-24T15:59:39.940Z,1.00
2023-04-24T16:02:44.083Z,1.55
2023-04-24T16:05:46.932Z,0.83
2023-04-24T16:08:49.911Z,0.80
2023-04-24T16:11:52.916Z,1.67
2023-04-24T16:14:55.833Z,0.77
2023-04-24T16:17:59.906Z,1.10
2023-04-24T16:21:02.491Z,0.90
2023-04-24T16:24:05.389Z,0.95
2023-04-24T16:27:08.041Z,1.00
2023-04-24T16:30:11.971Z,1.30
2023-04-24T16:33:16.012Z,0.90
2023-04-24T16:36:18.676Z,1.20
2023-04-24T16:39:21.592Z,1.20
2023-04-24T16:42:24.337Z,1.02
2023-04-24T16:45:27.154Z,1.50
2023-04-24T16:48:31.570Z,1.48
2023-04-24T16:51:34.291Z,1.43
2023-04-24T16:54:37.088Z,1.08
2023-04-24T16:57:39.940Z,1.10
2023-04-24T17:00:42.922Z,1.20
2023-04-24T17:03:47.596Z,1.13
2023-04-24T17:06:50.447Z,1.60
2023-04-24T17:09:53.451Z,1.13
2023-04-24T17:12:56.523Z,1.10
2023-04-24T17:15:59.361Z,1.23
2023-04-24T17:19:04.337Z,0.80
2023-04-24T17:22:06.898Z,0.80
2023-04-24T17:25:10.112Z,1.07
2023-04-24T17:28:17.639Z,1.10
2023-04-24T17:31:20.328Z,1.10
2023-04-24T17:34:24.324Z,0.98
2023-04-24T17:37:27.088Z,1.00
2023-04-24T17:40:29.676Z,0.70
2023-04-24T17:43:32.423Z,0.73
2023-04-24T17:46:35.596Z,1.25
2023-04-24T17:49:39.687Z,0.90
2023-04-24T17:52:42.468Z,1.13
2023-04-24T17:55:46.356Z,0.90
2023-04-24T17:58:49.164Z,1.00
2023-04-24T18:01:53.184Z,1.20
2023-04-24T18:04:57.339Z,1.20
2023-04-24T18:08:01.553Z,1.20
2023-04-24T18:11:04.385Z,1.17
2023-04-24T18:14:06.938Z,1.10
2023-04-24T18:17:09.693Z,1.70
2023-04-24T18:20:15.249Z,1.10
2023-04-24T18:23:17.849Z,1.00
2023-04-24T18:26:20.723Z,1.33
2023-04-24T18:29:23.391Z,1.30
2023-04-24T18:32:26.524Z,1.30
2023-04-24T18:35:30.796Z,1.17
2023-04-24T18:38:33.493Z,1.47
2023-04-24T18:41:36.184Z,1.13
2023-04-24T18:44:41.119Z,1.42
2023-04-24T18:47:44.086Z,1.57
2023-04-24T18:50:48.144Z,1.35
2023-04-24T18:53:50.961Z,1.23
2023-04-24T18:56:53.961Z,1.40
2023-04-24T18:59:56.643Z,1.20
2023-04-24T19:02:59.592Z,1.45
2023-04-24T19:06:03.691Z,1.63
2023-04-24T19:09:07.000Z,1.50
2023-04-24T19:12:09.990Z,1.40
2023-04-24T19:15:13.183Z,1.77
2023-04-24T19:18:17.122Z,1.38
2023-04-24T19:21:21.307Z,1.53
2023-04-24T19:24:24.623Z,1.73
2023-04-24T19:27:27.388Z,1.63
2023-04-24T19:30:30.088Z,1.60
2023-04-24T19:33:32.619Z,1.73
2023-04-24T19:36:37.116Z,1.57
2023-04-24T19:39:39.845Z,1.90
2023-04-24T19:42:44.670Z,2.08
2023-04-24T19:45:47.415Z,1.83
2023-04-24T19:48:50.639Z,1.77
2023-04-24T19:58:00.524Z,1.20
2023-04-24T20:01:04.055Z,1.48
2023-04-24T20:04:07.877Z,1.20
2023-04-24T20:07:12.151Z,1.27
2023-04-24T20:10:14.732Z,1.17
2023-04-24T20:13:17.615Z,1.00
2023-04-24T20:16:20.615Z,1.40
2023-04-24T20:19:23.444Z,1.58
2023-04-24T20:22:27.620Z,1.38
2023-04-24T20:25:30.325Z,1.37
2023-04-24T20:28:32.989Z,1.52
2023-04-24T20:31:35.853Z,1.20
2023-04-24T20:34:38.571Z,1.83
2023-04-24T20:37:42.832Z,1.10
2023-04-24T20:40:57.219Z,1.47
2023-04-24T20:44:00.870Z,1.00
2023-04-24T20:47:03.858Z,1.30
2023-04-24T20:50:07.904Z,1.02
2023-04-24T20:53:11.854Z,1.23
2023-04-24T20:56:14.535Z,1.37
2023-04-24T20:59:17.323Z,1.20
2023-04-24T21:02:20.068Z,0.95
2023-04-24T21:05:22.894Z,1.38
2023-04-24T21:08:26.865Z,1.50
2023-04-24T21:11:29.636Z,1.77
2023-04-24T21:14:32.250Z,1.13
2023-04-24T21:17:34.975Z,1.10
2023-04-24T21:20:37.550Z,1.50
2023-04-24T21:23:41.563Z,1.63
2023-04-24T21:26:44.172Z,1.50
2023-04-24T21:29:47.553Z,1.65
2023-04-24T21:32:52.036Z,1.50
2023-04-24T21:35:54.866Z,1.50
2023-04-24T21:38:58.979Z,1.60
2023-04-24T21:42:01.677Z,1.80
2023-04-24T21:45:04.480Z,1.63
2023-04-24T21:48:07.563Z,1.65
2023-04-24T21:51:10.254Z,1.70
2023-04-24T21:54:14.205Z,1.60
2023-04-24T21:57:16.941Z,1.40
2023-04-24T22:00:19.610Z,1.57
2023-04-24T22:03:22.238Z,1.73
2023-04-24T22:06:24.910Z,2.20
2023-04-24T22:09:28.794Z,1.60
2023-04-24T22:12:31.695Z,1.80
2023-04-24T22:15:34.333Z,1.50
2023-04-24T22:18:46.625Z,1.60
2023-04-24T22:21:49.833Z,1.80
2023-04-24T22:24:53.808Z,2.20
2023-04-24T22:27:56.774Z,1.30
2023-04-24T22:30:59.371Z,1.80
2023-04-24T22:34:01.924Z,1.30
2023-04-24T22:37:04.441Z,1.87
2023-04-24T22:40:10.364Z,1.50
2023-04-24T22:43:13.323Z,2.03
2023-04-24T22:46:15.853Z,1.55
2023-04-24T22:49:18.425Z,1.30
2023-04-24T22:52:21.725Z,1.53
2023-04-24T22:55:25.811Z,1.40
2023-04-24T22:58:28.394Z,1.73
2023-04-24T23:01:31.060Z,2.07
2023-04-24T23:04:33.816Z,1.50
2023-04-24T23:07:37.499Z,1.35
2023-04-24T23:10:41.531Z,1.40
2023-04-24T23:13:44.268Z,1.73
2023-04-24T23:16:46.878Z,1.85
2023-04-24T23:19:49.668Z,1.97
2023-04-24T23:22:52.349Z,1.50
2023-04-24T23:25:56.381Z,1.40
2023-04-24T23:28:58.861Z,1.30
2023-04-24T23:32:01.896Z,1.33
2023-04-24T23:35:04.801Z,1.58
2023-04-24T23:38:07.297Z,1.00
2023-04-24T23:41:11.216Z,1.00
2023-04-24T23:44:14.442Z,1.30
2023-04-24T23:47:16.972Z,1.50
2023-04-24T23:50:19.664Z,1.17
2023-04-24T23:53:22.192Z,1.10
2023-04-24T23:56:26.651Z,1.20
2023-04-24T23:59:30.731Z,1.00
